Appleton, New York
Current Conditions -  °F | °C
As of 7:53 AM on Tuesday 21 Oct 2014 (Local Time) from KIAG Reporting Station
Haze Haze  
Wind Chill: 50°   Ceiling: 1300
Heat Index: 50°   Visibility: 3mi
Dew Point: 48°   Wind: 7mph
Humidity: 93%   Direction: 280°W
Pressure: 29.81"   Gusts: NA
Location:  43.33°N, 78.65°W
Report Text: KIAG 211153Z 28006KT 3SM BR OVC013 10/09 A2981 RMK AO2 SLP100 VIS NW 2 1/2 60010 70024 T01000089 10106 20094 53013
Loading
Personal Weather Stations






























Interactive Weather Map New forecast layout! Learn more

10-Day Weather Forecast

Advertisements
Track Severe Weather on mobile